Time;durP1;ratioP1;P1;durP2;ratioP2;P2;SDS_P1;SDS_P2;PMS_P1;PMS_P2;Temp;Humidity;BMP_temperature;BMP_pressure;BME280_temperature;BME280_humidity;BME280_pressure;Samples;Min_cycle;Max_cycle;Signal;HPM_P1;HPM_P2
2023/08/25 00:01:29;;;;;;;14.57;10.52;;;16.90;99.90;;;;;;5007552;28;20640;-78
2023/08/25 00:03:56;;;;;;;12.55;9.70;;;16.80;99.90;;;;;;5028707;28;20103;-79
2023/08/25 00:06:23;;;;;;;11.32;10.40;;;16.80;99.90;;;;;;5029046;28;20136;-78
2023/08/25 00:08:49;;;;;;;12.00;10.80;;;16.80;99.90;;;;;;5009816;28;20737;-78
2023/08/25 00:11:16;;;;;;;13.43;11.75;;;16.80;99.90;;;;;;5026780;28;20049;-79
2023/08/25 00:13:43;;;;;;;16.58;12.35;;;16.70;99.90;;;;;;5022094;28;20045;-77
2023/08/25 00:16:10;;;;;;;13.30;12.07;;;16.70;99.90;;;;;;5015781;28;20040;-80
2023/08/25 00:18:36;;;;;;;12.80;11.77;;;16.70;99.90;;;;;;5035532;28;20098;-80
2023/08/25 00:21:04;;;;;;;14.23;12.90;;;16.70;99.90;;;;;;5012233;28;20059;-77
2023/08/25 00:23:31;;;;;;;13.75;12.48;;;16.70;99.90;;;;;;5006865;28;20041;-75
2023/08/25 00:25:57;;;;;;;14.30;13.00;;;16.70;99.90;;;;;;5026629;28;20485;-78
2023/08/25 00:28:25;;;;;;;14.00;12.80;;;16.70;99.90;;;;;;5002626;28;20053;-78
2023/08/25 00:30:54;;;;;;;14.98;13.45;;;16.80;99.90;;;;;;4991414;28;20103;-76
2023/08/25 00:33:21;;;;;;;14.27;13.05;;;16.80;99.90;;;;;;5008265;28;20049;-75
2023/08/25 00:35:48;;;;;;;16.27;13.77;;;16.90;99.90;;;;;;5028086;28;20049;-76
2023/08/25 00:38:15;;;;;;;16.88;14.07;;;16.80;99.90;;;;;;5005240;28;20057;-75
2023/08/25 00:40:42;;;;;;;15.93;14.45;;;16.80;99.90;;;;;;5004769;28;20067;-78
2023/08/25 00:43:08;;;;;;;14.60;13.50;;;17.00;99.90;;;;;;5032550;28;20634;-79
2023/08/25 00:45:41;;;;;;;15.27;13.75;;;17.00;99.90;;;;;;5022969;28;20128;-77
2023/08/25 00:48:10;;;;;;;14.43;13.35;;;16.80;99.90;;;;;;5005639;28;20053;-79
2023/08/25 00:50:38;;;;;;;15.85;13.25;;;16.90;99.90;;;;;;5008411;28;20707;-79
2023/08/25 00:53:05;;;;;;;13.27;11.93;;;16.80;99.90;;;;;;5005237;28;20115;-79
2023/08/25 00:55:34;;;;;;;14.18;12.80;;;16.80;99.90;;;;;;5004531;28;20118;-79
2023/08/25 00:58:05;;;;;;;12.55;11.50;;;16.60;99.90;;;;;;5027133;28;20098;-78
2023/08/25 01:00:32;;;;;;;12.88;11.68;;;16.60;99.90;;;;;;5000407;28;20052;-79
2023/08/25 01:03:00;;;;;;;13.27;11.88;;;16.70;99.90;;;;;;5025877;28;20053;-79
2023/08/25 01:05:27;;;;;;;12.60;11.70;;;16.70;99.90;;;;;;5006991;28;20041;-79
2023/08/25 01:07:56;;;;;;;16.02;12.52;;;16.50;99.90;;;;;;5006101;28;20053;-78
2023/08/25 01:10:33;;;;;;;12.88;11.75;;;16.50;99.90;;;;;;5000662;28;20049;-77
2023/08/25 01:13:16;;;;;;;14.70;13.27;;;16.50;99.90;;;;;;5008391;28;20143;-75
2023/08/25 01:15:48;;;;;;;14.82;13.48;;;16.50;99.90;;;;;;5026173;28;20045;-78
2023/08/25 01:18:22;;;;;;;14.57;13.15;;;16.50;99.90;;;;;;5005896;28;20567;-81
2023/08/25 01:20:51;;;;;;;15.60;14.23;;;16.40;99.90;;;;;;4987847;28;20106;-79
2023/08/25 01:23:53;;;;;;;16.30;14.88;;;16.40;99.90;;;;;;5006252;28;20143;-79
2023/08/25 01:26:20;;;;;;;15.68;14.30;;;16.40;99.90;;;;;;5019454;28;20041;-76
2023/08/25 01:28:53;;;;;;;15.80;14.60;;;16.30;99.90;;;;;;5009462;28;20045;-78
2023/08/25 01:31:22;;;;;;;16.02;14.38;;;16.30;99.90;;;;;;5006926;28;20041;-79
2023/08/25 01:33:49;;;;;;;15.75;14.43;;;16.40;99.90;;;;;;5004445;28;20049;-76
2023/08/25 01:36:28;;;;;;;15.25;14.13;;;16.40;99.90;;;;;;5025612;28;20045;-75
2023/08/25 01:39:10;;;;;;;17.05;14.38;;;16.30;99.90;;;;;;5021757;28;20114;-76
2023/08/25 01:42:09;;;;;;;16.40;14.73;;;16.30;99.90;;;;;;4987864;28;20053;-77
2023/08/25 01:44:40;;;;;;;14.57;13.00;;;16.50;99.90;;;;;;4967269;28;20554;-76
2023/08/25 01:47:07;;;;;;;14.45;13.23;;;16.50;99.90;;;;;;5010191;28;20044;-75
2023/08/25 01:49:37;;;;;;;13.38;12.18;;;16.40;99.90;;;;;;5003305;28;20149;-75
2023/08/25 01:52:04;;;;;;;14.00;12.50;;;16.40;99.90;;;;;;5005947;28;20037;-77
2023/08/25 01:54:32;;;;;;;14.18;11.98;;;16.30;99.90;;;;;;5007812;28;20303;-76
2023/08/25 01:56:58;;;;;;;12.65;11.38;;;16.30;99.90;;;;;;4996188;28;20049;-78
2023/08/25 01:59:25;;;;;;;13.05;11.77;;;16.10;99.90;;;;;;5005017;28;20095;-77
2023/08/25 02:01:52;;;;;;;13.55;12.23;;;16.10;99.90;;;;;;5007862;28;20034;-78
2023/08/25 02:04:18;;;;;;;12.70;11.70;;;16.10;99.90;;;;;;5006216;28;20102;-77
2023/08/25 02:06:46;;;;;;;14.40;11.70;;;16.20;99.90;;;;;;5023625;28;20048;-77
2023/08/25 02:09:14;;;;;;;13.10;11.75;;;16.20;99.90;;;;;;5007208;28;20048;-78
2023/08/25 02:11:40;;;;;;;12.38;11.05;;;16.20;99.90;;;;;;4999557;28;20050;-76
2023/08/25 02:14:17;;;;;;;13.45;11.25;;;16.40;99.90;;;;;;5022739;28;20042;-77
2023/08/25 02:16:43;;;;;;;10.55;9.50;;;16.60;99.90;;;;;;5003250;28;20106;-78
2023/08/25 02:19:10;;;;;;;15.13;10.35;;;16.70;99.90;;;;;;5006062;28;20037;-76
2023/08/25 02:21:37;;;;;;;11.63;10.70;;;16.80;99.90;;;;;;5018663;28;20037;-76
2023/08/25 02:24:04;;;;;;;11.77;10.73;;;16.90;99.90;;;;;;5005691;28;20041;-77
2023/08/25 02:26:32;;;;;;;11.85;10.82;;;16.90;99.90;;;;;;5003783;28;20511;-78
2023/08/25 02:28:59;;;;;;;13.10;11.93;;;17.10;99.90;;;;;;5007602;28;20044;-79
2023/08/25 02:31:26;;;;;;;12.93;11.73;;;17.10;99.90;;;;;;5007176;28;20060;-77
2023/08/25 02:33:53;;;;;;;14.25;12.95;;;17.20;99.90;;;;;;5007472;28;20052;-77
2023/08/25 02:36:20;;;;;;;14.60;13.50;;;17.30;99.90;;;;;;5004243;28;20052;-79
2023/08/25 02:38:46;;;;;;;14.57;13.43;;;17.20;99.90;;;;;;5024205;28;20049;-78
2023/08/25 02:41:14;;;;;;;14.13;13.00;;;17.20;99.90;;;;;;5024266;28;20049;-81
2023/08/25 02:43:40;;;;;;;15.10;13.70;;;17.20;99.90;;;;;;5024808;28;20052;-77
2023/08/25 02:46:07;;;;;;;14.70;13.40;;;17.20;99.90;;;;;;5025506;28;20634;-79
2023/08/25 02:48:34;;;;;;;14.40;13.25;;;17.20;99.90;;;;;;5001335;28;20037;-76
2023/08/25 02:51:02;;;;;;;15.43;14.25;;;17.00;99.90;;;;;;5003933;28;20045;-77
2023/08/25 02:53:28;;;;;;;15.02;13.93;;;16.80;99.90;;;;;;5008847;28;20064;-75
2023/08/25 02:55:55;;;;;;;13.77;12.80;;;16.80;99.90;;;;;;5003074;28;20055;-78
2023/08/25 02:58:23;;;;;;;14.32;13.23;;;16.70;99.90;;;;;;5009560;28;20635;-79
2023/08/25 03:00:50;;;;;;;14.63;12.95;;;16.60;99.90;;;;;;5030526;28;20045;-77
2023/08/25 03:03:17;;;;;;;13.52;12.40;;;16.60;99.90;;;;;;5030238;28;20136;-77
2023/08/25 03:05:46;;;;;;;13.80;12.50;;;16.60;99.90;;;;;;5026484;28;20052;-76
2023/08/25 03:08:15;;;;;;;14.02;12.30;;;16.60;99.90;;;;;;5035543;28;20044;-77
2023/08/25 03:10:43;;;;;;;15.98;13.80;;;16.60;99.90;;;;;;4990705;28;20127;-77
2023/08/25 03:13:10;;;;;;;14.45;13.05;;;16.60;99.90;;;;;;5006675;28;20041;-77
2023/08/25 03:15:38;;;;;;;13.57;12.30;;;16.50;99.90;;;;;;5011042;28;20061;-77
2023/08/25 03:18:07;;;;;;;15.98;12.88;;;16.40;99.90;;;;;;5015970;28;20755;-76
2023/08/25 03:20:34;;;;;;;15.45;13.95;;;16.50;99.90;;;;;;5008172;28;20065;-77
2023/08/25 03:23:00;;;;;;;14.38;13.02;;;16.50;99.90;;;;;;5011002;28;20065;-78
2023/08/25 03:25:27;;;;;;;16.23;14.75;;;16.50;99.90;;;;;;5005404;28;20045;-76
2023/08/25 03:27:55;;;;;;;15.00;13.50;;;16.50;99.90;;;;;;5027996;28;20049;-75
2023/08/25 03:30:22;;;;;;;14.25;12.73;;;16.50;99.90;;;;;;4989640;28;20045;-78
2023/08/25 03:32:49;;;;;;;13.98;12.55;;;16.30;99.90;;;;;;5004402;28;20048;-77
2023/08/25 03:35:17;;;;;;;14.95;13.50;;;16.20;99.90;;;;;;5027382;28;20048;-76
2023/08/25 03:37:43;;;;;;;14.55;13.43;;;16.10;99.90;;;;;;4989876;28;20088;-77
2023/08/25 03:40:10;;;;;;;15.80;14.30;;;16.20;99.90;;;;;;5006230;28;20056;-75
2023/08/25 03:42:37;;;;;;;19.25;16.27;;;16.10;99.90;;;;;;5002059;28;20056;-77
2023/08/25 03:45:05;;;;;;;18.10;16.33;;;16.20;99.90;;;;;;4993031;28;20427;-78
2023/08/25 03:47:32;;;;;;;18.02;16.38;;;16.20;99.90;;;;;;5025456;28;20068;-79
2023/08/25 03:49:59;;;;;;;16.88;15.25;;;16.00;99.90;;;;;;5020387;28;20049;-77
2023/08/25 03:52:26;;;;;;;18.20;16.67;;;16.10;99.90;;;;;;4983861;28;20041;-78
2023/08/25 03:54:53;;;;;;;20.20;17.85;;;16.00;99.90;;;;;;5007858;28;20061;-78
2023/08/25 03:57:19;;;;;;;19.15;17.55;;;16.10;99.90;;;;;;5012795;28;20534;-77
2023/08/25 03:59:46;;;;;;;20.73;18.83;;;16.00;99.90;;;;;;5024502;28;20037;-79
2023/08/25 04:02:13;;;;;;;23.73;19.35;;;16.00;99.90;;;;;;5007457;28;20040;-76
2023/08/25 04:04:40;;;;;;;21.27;18.42;;;15.90;99.90;;;;;;5009692;28;20087;-75
2023/08/25 04:07:07;;;;;;;20.42;18.42;;;15.90;99.90;;;;;;5004714;28;20571;-78
2023/08/25 04:09:35;;;;;;;20.27;18.35;;;15.80;99.90;;;;;;5000009;28;20053;-76
2023/08/25 04:12:02;;;;;;;19.08;17.45;;;15.80;99.90;;;;;;4995441;28;20525;-76
2023/08/25 04:14:28;;;;;;;20.13;18.38;;;15.70;99.90;;;;;;5025061;28;20040;-79
2023/08/25 04:16:56;;;;;;;20.60;18.55;;;15.60;99.90;;;;;;4993032;28;20647;-77
2023/08/25 04:19:24;;;;;;;22.25;19.80;;;15.60;99.90;;;;;;5003807;28;20057;-77
2023/08/25 04:21:52;;;;;;;21.60;19.42;;;15.50;99.90;;;;;;5003989;28;20131;-76
2023/08/25 04:24:19;;;;;;;22.13;19.83;;;15.60;99.90;;;;;;5006821;28;20053;-77
2023/08/25 04:26:46;;;;;;;20.85;19.02;;;15.60;99.90;;;;;;5006604;28;20049;-78
2023/08/25 04:29:13;;;;;;;21.85;19.70;;;15.60;99.90;;;;;;5029702;28;20044;-77
2023/08/25 04:31:40;;;;;;;20.35;18.25;;;15.50;99.90;;;;;;5003408;28;20562;-76
2023/08/25 04:34:09;;;;;;;21.88;19.60;;;15.30;99.90;;;;;;4992667;28;20042;-77
2023/08/25 04:36:37;;;;;;;19.95;18.15;;;15.30;99.90;;;;;;5001001;28;20060;-76
2023/08/25 04:39:04;;;;;;;19.38;17.67;;;15.30;99.90;;;;;;5026368;28;20053;-74
2023/08/25 04:41:31;;;;;;;20.25;18.55;;;15.30;99.90;;;;;;5006034;28;20063;-79
2023/08/25 04:43:58;;;;;;;20.40;18.63;;;15.20;99.90;;;;;;5004914;28;20055;-79
2023/08/25 04:46:28;;;;;;;19.33;17.63;;;15.20;99.90;;;;;;5004870;28;20091;-78
2023/08/25 04:48:55;;;;;;;21.48;19.23;;;15.20;99.90;;;;;;5024438;28;20057;-77
2023/08/25 04:51:23;;;;;;;19.45;17.65;;;15.10;99.90;;;;;;5008480;28;20494;-76
2023/08/25 04:53:50;;;;;;;18.77;17.10;;;15.20;99.90;;;;;;5004334;28;20052;-77
2023/08/25 04:56:17;;;;;;;21.05;19.10;;;15.40;99.90;;;;;;5001798;28;20046;-78
2023/08/25 04:58:44;;;;;;;19.90;18.13;;;15.30;99.90;;;;;;5006378;28;20606;-79
2023/08/25 05:01:11;;;;;;;19.80;17.60;;;15.30;99.90;;;;;;4991937;28;20048;-74
2023/08/25 05:03:38;;;;;;;20.75;18.92;;;15.30;99.90;;;;;;5000004;28;20057;-77
2023/08/25 05:06:05;;;;;;;20.27;18.45;;;15.30;99.90;;;;;;5007892;28;20053;-77
2023/08/25 05:08:34;;;;;;;19.55;17.30;;;15.30;99.90;;;;;;5001069;28;21029;-78
2023/08/25 05:11:03;;;;;;;19.88;18.23;;;15.30;99.90;;;;;;5009086;28;20049;-78
2023/08/25 05:13:29;;;;;;;18.58;16.88;;;15.40;99.90;;;;;;5004744;28;20051;-80
2023/08/25 05:15:57;;;;;;;19.02;17.13;;;15.50;99.90;;;;;;5004215;28;20053;-76
2023/08/25 05:18:47;;;;;;;18.75;16.95;;;15.50;99.90;;;;;;5009947;28;20045;-78
2023/08/25 05:21:15;;;;;;;18.23;16.63;;;15.40;99.90;;;;;;5008197;28;20161;-76
2023/08/25 05:23:46;;;;;;;18.50;16.90;;;15.50;99.90;;;;;;5004095;28;20045;-76
2023/08/25 05:26:14;;;;;;;19.60;16.77;;;15.50;99.90;;;;;;5008926;28;20060;-76
2023/08/25 05:28:43;;;;;;;18.88;17.20;;;15.60;99.90;;;;;;5001583;28;20049;-77
2023/08/25 05:31:11;;;;;;;20.33;18.63;;;15.60;99.90;;;;;;5002753;28;20045;-76
2023/08/25 05:33:57;;;;;;;24.42;17.10;;;15.70;99.90;;;;;;5006211;28;21193;-77
2023/08/25 05:36:34;;;;;;;18.88;17.13;;;15.70;99.90;;;;;;4998004;28;20060;-77
2023/08/25 05:39:02;;;;;;;19.05;17.48;;;15.90;99.90;;;;;;4996860;28;20075;-77
2023/08/25 05:41:28;;;;;;;18.88;17.17;;;15.90;99.90;;;;;;5023167;28;20047;-77
2023/08/25 05:43:55;;;;;;;18.35;16.75;;;16.00;99.90;;;;;;5017734;28;20717;-77
2023/08/25 05:46:22;;;;;;;22.40;17.33;;;16.20;99.90;;;;;;5004219;28;20041;-77
2023/08/25 05:48:49;;;;;;;16.25;14.95;;;16.30;99.90;;;;;;5010931;28;20049;-75
2023/08/25 05:51:16;;;;;;;18.02;16.30;;;16.50;99.90;;;;;;5003377;28;20127;-77
2023/08/25 05:53:44;;;;;;;16.95;15.38;;;16.50;99.90;;;;;;5006781;28;20044;-76
2023/08/25 05:56:11;;;;;;;16.85;15.30;;;16.60;99.90;;;;;;5025452;28;20045;-78
2023/08/25 05:58:37;;;;;;;18.23;15.20;;;16.60;99.90;;;;;;5021512;28;20668;-78
2023/08/25 06:01:04;;;;;;;16.13;14.73;;;16.60;99.90;;;;;;4994759;28;20055;-78
2023/08/25 06:03:31;;;;;;;17.27;14.40;;;16.60;99.90;;;;;;5024038;28;20057;-78
2023/08/25 06:05:58;;;;;;;15.80;14.25;;;16.60;99.90;;;;;;5020848;28;20056;-78
2023/08/25 06:08:25;;;;;;;15.25;13.95;;;16.70;99.90;;;;;;5025705;28;20617;-77
2023/08/25 06:10:54;;;;;;;17.08;15.45;;;16.90;99.90;;;;;;5021557;28;20727;-76
2023/08/25 06:13:21;;;;;;;15.20;13.93;;;17.00;99.90;;;;;;5023832;28;20076;-78
2023/08/25 06:15:51;;;;;;;16.23;14.88;;;17.20;99.90;;;;;;5007720;28;20049;-78
2023/08/25 06:18:18;;;;;;;16.80;15.23;;;17.40;99.90;;;;;;5007453;28;20042;-80
2023/08/25 06:20:45;;;;;;;15.10;13.85;;;17.40;99.90;;;;;;5021318;28;20041;-80
2023/08/25 06:23:13;;;;;;;13.50;12.57;;;17.50;99.90;;;;;;5023033;28;20510;-78
2023/08/25 06:25:39;;;;;;;16.50;14.48;;;17.50;99.90;;;;;;5020290;28;20073;-77
2023/08/25 06:28:06;;;;;;;15.35;13.80;;;17.70;99.90;;;;;;5001409;28;20098;-78
2023/08/25 06:30:33;;;;;;;15.60;14.23;;;17.80;99.90;;;;;;5009422;28;20037;-81
2023/08/25 06:33:00;;;;;;;15.68;14.25;;;18.00;99.90;;;;;;5006648;28;20049;-78
2023/08/25 06:35:27;;;;;;;15.35;14.18;;;18.20;99.90;;;;;;5026760;28;20132;-79
2023/08/25 06:37:53;;;;;;;15.93;14.80;;;18.50;99.90;;;;;;5024843;28;20060;-79
2023/08/25 06:40:21;;;;;;;16.95;15.65;;;18.60;99.90;;;;;;5025242;28;20116;-79
2023/08/25 06:42:47;;;;;;;17.85;16.38;;;18.80;99.90;;;;;;5023442;28;20535;-77
2023/08/25 06:45:14;;;;;;;17.20;16.00;;;19.00;99.90;;;;;;5026533;28;20033;-77
2023/08/25 06:47:42;;;;;;;18.63;17.02;;;19.10;99.90;;;;;;5014630;28;20034;-78
2023/08/25 06:50:08;;;;;;;19.90;18.38;;;19.50;99.90;;;;;;5021187;28;20036;-77
2023/08/25 06:52:36;;;;;;;20.27;18.88;;;19.90;99.90;;;;;;4993927;28;20042;-79
2023/08/25 06:55:04;;;;;;;22.88;21.25;;;20.20;99.90;;;;;;5013767;28;20064;-79
2023/08/25 06:57:33;;;;;;;24.83;22.55;;;20.80;99.90;;;;;;5030797;28;20049;-84
2023/08/25 07:00:00;;;;;;;24.10;22.40;;;21.10;99.90;;;;;;5017891;28;20052;-81
2023/08/25 07:02:27;;;;;;;23.90;22.38;;;21.70;99.90;;;;;;5026003;28;20044;-79
2023/08/25 07:04:53;;;;;;;24.52;22.73;;;22.00;99.90;;;;;;5024127;28;20080;-79
2023/08/25 07:07:27;;;;;;;23.83;22.23;;;22.00;99.90;;;;;;5041331;28;20037;-78
2023/08/25 07:09:53;;;;;;;23.67;22.05;;;21.90;99.90;;;;;;5036157;28;20051;-79
2023/08/25 07:12:20;;;;;;;23.60;21.80;;;21.80;99.90;;;;;;5027833;28;20049;-78
2023/08/25 07:14:47;;;;;;;24.83;22.95;;;21.60;99.90;;;;;;5040538;28;20029;-79
2023/08/25 07:17:14;;;;;;;25.02;23.38;;;21.70;99.90;;;;;;5045438;28;20041;-79
2023/08/25 07:19:41;;;;;;;25.75;23.90;;;21.80;99.90;;;;;;5026221;28;20212;-79
2023/08/25 07:22:08;;;;;;;25.38;23.80;;;22.00;99.90;;;;;;5043002;28;20079;-79
2023/08/25 07:24:35;;;;;;;26.60;24.42;;;22.20;99.90;;;;;;5031235;28;20108;-78
2023/08/25 07:27:02;;;;;;;26.40;24.67;;;22.60;99.90;;;;;;5014328;28;20060;-79
2023/08/25 07:29:29;;;;;;;26.10;24.13;;;22.90;99.90;;;;;;5031282;28;20511;-79
2023/08/25 07:31:56;;;;;;;25.70;23.90;;;23.00;99.90;;;;;;5020837;28;20053;-78
2023/08/25 07:34:23;;;;;;;25.58;23.58;;;23.10;99.90;;;;;;5020050;28;20104;-80
2023/08/25 07:36:50;;;;;;;25.35;23.60;;;23.10;99.90;;;;;;5033006;28;20041;-77
2023/08/25 07:39:17;;;;;;;28.48;26.45;;;23.30;99.90;;;;;;5014020;28;20118;-77
2023/08/25 07:41:44;;;;;;;31.48;29.02;;;23.50;99.90;;;;;;5011379;28;20095;-77
2023/08/25 07:44:11;;;;;;;26.48;24.50;;;23.20;99.90;;;;;;5011885;28;20037;-79
2023/08/25 07:46:39;;;;;;;30.17;28.25;;;23.00;99.90;;;;;;5029092;28;20045;-77
2023/08/25 07:49:07;;;;;;;29.42;27.33;;;22.50;99.90;;;;;;5029061;28;20519;-78
2023/08/25 07:51:38;;;;;;;30.23;28.48;;;22.40;99.90;;;;;;5025595;28;20145;-77
2023/08/25 07:54:07;;;;;;;30.42;28.02;;;22.00;99.90;;;;;;5028303;28;20084;-77
2023/08/25 07:56:34;;;;;;;31.33;29.33;;;21.90;99.90;;;;;;5038843;28;20044;-76
2023/08/25 07:59:00;;;;;;;29.60;27.80;;;21.80;99.90;;;;;;5021065;28;21368;-77
2023/08/25 08:01:28;;;;;;;30.15;28.15;;;22.00;99.90;;;;;;5013058;28;20037;-77
2023/08/25 08:03:55;;;;;;;29.88;28.17;;;22.30;99.90;;;;;;5013996;28;20044;-77
2023/08/25 08:06:22;;;;;;;30.75;28.77;;;22.40;99.90;;;;;;5036995;28;20049;-77
2023/08/25 08:08:48;;;;;;;29.92;27.98;;;22.40;99.90;;;;;;4996060;28;20041;-77
2023/08/25 08:11:16;;;;;;;29.80;27.42;;;22.50;99.90;;;;;;5019938;28;20108;-78
2023/08/25 08:13:42;;;;;;;29.98;28.08;;;22.70;99.90;;;;;;5010290;28;20050;-77
2023/08/25 08:16:09;;;;;;;29.75;27.80;;;22.60;99.90;;;;;;5028641;28;20068;-79
2023/08/25 08:18:36;;;;;;;31.50;29.45;;;22.40;99.90;;;;;;5035067;28;20060;-77
2023/08/25 08:21:03;;;;;;;30.67;28.58;;;22.20;99.90;;;;;;5027682;28;20037;-77
2023/08/25 08:23:29;;;;;;;29.52;27.48;;;22.00;99.90;;;;;;5032855;28;20568;-77
2023/08/25 08:25:56;;;;;;;29.00;27.10;;;21.80;99.90;;;;;;5005523;28;20049;-78
2023/08/25 08:28:23;;;;;;;30.13;28.17;;;21.90;99.90;;;;;;5031589;28;20052;-77
2023/08/25 08:30:50;;;;;;;30.63;28.25;;;22.00;99.90;;;;;;5030129;28;20601;-77
2023/08/25 08:33:17;;;;;;;29.88;27.88;;;21.80;99.90;;;;;;5014263;28;20076;-78
2023/08/25 08:35:44;;;;;;;29.20;27.25;;;21.50;99.90;;;;;;5017165;28;20105;-78
2023/08/25 08:38:11;;;;;;;29.52;27.48;;;21.30;99.90;;;;;;5031633;28;20585;-78
2023/08/25 08:40:38;;;;;;;27.25;25.25;;;21.30;99.90;;;;;;5031182;28;20044;-77
2023/08/25 08:43:07;;;;;;;27.42;25.35;;;21.20;99.90;;;;;;5033963;28;20048;-78
2023/08/25 08:45:36;;;;;;;26.35;24.52;;;21.20;99.90;;;;;;5037065;28;20124;-77
2023/08/25 08:48:07;;;;;;;27.13;25.33;;;21.30;99.90;;;;;;5021136;28;20095;-78
2023/08/25 08:50:35;;;;;;;28.05;25.98;;;21.40;99.90;;;;;;5027156;28;20051;-79
2023/08/25 08:53:04;;;;;;;26.30;24.50;;;21.40;99.90;;;;;;5020454;28;20055;-80
2023/08/25 08:55:33;;;;;;;26.83;25.05;;;21.40;99.90;;;;;;5035386;28;20064;-79
2023/08/25 08:57:59;;;;;;;26.58;24.58;;;21.20;99.90;;;;;;5035591;28;20060;-78
2023/08/25 09:00:27;;;;;;;29.40;26.95;;;21.10;99.90;;;;;;5017523;28;20048;-80
2023/08/25 09:02:59;;;;;;;25.85;23.30;;;20.80;99.90;;;;;;5023948;28;20146;-77
2023/08/25 09:05:27;;;;;;;23.15;20.80;;;20.40;99.90;;;;;;5035776;28;20092;-76
2023/08/25 09:08:02;;;;;;;26.95;24.25;;;19.60;99.90;;;;;;5025870;28;20071;-78
2023/08/25 09:10:30;;;;;;;27.67;24.20;;;19.20;99.90;;;;;;5008268;28;20213;-78
2023/08/25 09:12:57;;;;;;;28.17;25.38;;;18.80;99.90;;;;;;5022477;28;20049;-78
2023/08/25 09:15:28;;;;;;;30.35;27.27;;;18.70;99.90;;;;;;5027667;28;20056;-77
2023/08/25 09:18:07;;;;;;;33.83;30.20;;;18.60;99.90;;;;;;5008981;28;20128;-80
2023/08/25 09:20:38;;;;;;;49.42;30.83;;;18.60;99.90;;;;;;5006469;28;20102;-75
2023/08/25 09:23:06;;;;;;;32.78;27.13;;;18.60;99.90;;;;;;5024500;28;20052;-78
2023/08/25 09:25:33;;;;;;;38.85;27.95;;;18.40;99.90;;;;;;5023394;28;20041;-77
2023/08/25 09:28:02;;;;;;;34.72;28.85;;;18.40;99.90;;;;;;5011077;28;20041;-79
2023/08/25 09:30:37;;;;;;;46.97;33.45;;;18.40;99.90;;;;;;5011247;28;20049;-78
2023/08/25 09:33:08;;;;;;;42.22;35.47;;;18.40;99.90;;;;;;5004062;28;20053;-78
2023/08/25 09:35:35;;;;;;;45.67;36.78;;;18.50;99.90;;;;;;5026445;28;20407;-77
2023/08/25 09:38:03;;;;;;;44.78;36.33;;;18.50;99.90;;;;;;5022644;28;20045;-79
2023/08/25 09:40:31;;;;;;;54.08;36.47;;;18.50;99.90;;;;;;5009672;28;20049;-75
2023/08/25 09:43:02;;;;;;;41.83;34.47;;;18.50;99.90;;;;;;5003899;28;20067;-77
2023/08/25 09:45:33;;;;;;;53.30;36.47;;;18.50;99.90;;;;;;5007594;28;20064;-76
2023/08/25 09:48:13;;;;;;;43.50;33.65;;;18.50;99.90;;;;;;5003373;28;20455;-77
2023/08/25 09:50:42;;;;;;;75.25;37.03;;;18.50;99.90;;;;;;5012126;28;20530;-76
2023/08/25 09:53:13;;;;;;;46.38;31.13;;;18.40;99.90;;;;;;5005677;28;20053;-75
2023/08/25 09:55:40;;;;;;;52.65;31.50;;;18.40;99.90;;;;;;5026471;28;20813;-77
2023/08/25 09:58:09;;;;;;;45.97;30.70;;;18.50;99.90;;;;;;5007556;28;20048;-77
2023/08/25 10:00:37;;;;;;;9.13;8.02;;;18.50;99.90;;;;;;4989731;28;20155;-77
2023/08/25 10:03:09;;;;;;;2.40;2.40;;;18.40;99.90;;;;;;5012323;28;20072;-77
2023/08/25 10:05:38;;;;;;;2.70;2.60;;;18.40;99.90;;;;;;5014646;28;20068;-78
2023/08/25 10:08:07;;;;;;;4.57;4.38;;;18.40;99.90;;;;;;5005853;28;20045;-78
2023/08/25 10:10:38;;;;;;;4.25;3.97;;;18.30;99.90;;;;;;5025850;28;20631;-78
2023/08/25 10:13:08;;;;;;;1.80;1.80;;;18.30;99.90;;;;;;5023620;28;20077;-78
2023/08/25 10:15:37;;;;;;;1.65;1.65;;;18.30;99.90;;;;;;5024968;28;20049;-79
2023/08/25 10:18:07;;;;;;;0.32;0.32;;;18.30;99.90;;;;;;5002420;28;20046;-78
2023/08/25 10:20:35;;;;;;;0.50;0.50;;;18.30;99.90;;;;;;5019750;28;20045;-77
2023/08/25 10:23:04;;;;;;;2.08;1.65;;;18.30;99.90;;;;;;5024432;28;20488;-76
2023/08/25 10:25:32;;;;;;;0.70;0.70;;;18.20;99.90;;;;;;5005132;28;20045;-77
2023/08/25 10:28:03;;;;;;;1.17;1.17;;;18.20;99.90;;;;;;5021339;28;20792;-78
2023/08/25 10:30:30;;;;;;;1.17;1.17;;;18.30;99.90;;;;;;4995976;28;20087;-77
2023/08/25 10:33:09;;;;;;;1.70;1.70;;;18.30;99.90;;;;;;5020816;28;20056;-76
2023/08/25 10:35:47;;;;;;;2.03;2.03;;;18.40;99.90;;;;;;5024258;28;20099;-78
2023/08/25 10:38:29;;;;;;;2.10;2.10;;;18.40;99.90;;;;;;5030797;28;20052;-78
2023/08/25 10:41:09;;;;;;;1.95;1.95;;;18.50;99.90;;;;;;5004103;28;20042;-78
2023/08/25 10:43:37;;;;;;;1.80;1.80;;;18.50;99.90;;;;;;5007369;28;20099;-78
2023/08/25 10:46:07;;;;;;;1.50;1.50;;;18.60;99.90;;;;;;4991516;28;20091;-78
2023/08/25 10:48:37;;;;;;;1.33;1.33;;;18.50;99.90;;;;;;5023013;28;20037;-78
2023/08/25 10:51:18;;;;;;;1.30;1.30;;;18.50;99.90;;;;;;5007601;28;20577;-76
2023/08/25 10:53:46;;;;;;;1.17;1.17;;;18.60;99.90;;;;;;5025914;28;20804;-75
2023/08/25 10:56:21;;;;;;;3.97;3.60;;;18.50;99.90;;;;;;5023800;28;20049;-76
2023/08/25 10:58:58;;;;;;;0.45;0.45;;;18.40;99.90;;;;;;5010308;28;20128;-77
2023/08/25 11:01:38;;;;;;;0.20;0.20;;;18.30;99.90;;;;;;5010223;28;20502;-77
2023/08/25 11:04:32;;;;;;;0.25;0.25;;;18.30;99.90;;;;;;5019852;28;20169;-77
2023/08/25 11:06:59;;;;;;;1.38;1.38;;;18.30;99.90;;;;;;5004646;28;20045;-76
2023/08/25 11:09:26;;;;;;;0.20;0.20;;;18.30;99.90;;;;;;5003081;28;20056;-76
2023/08/25 11:11:58;;;;;;;0.10;0.10;;;18.40;99.90;;;;;;5006563;28;20098;-77
2023/08/25 11:14:29;;;;;;;0.17;0.17;;;18.40;99.90;;;;;;4989537;28;20079;-77
2023/08/25 11:16:57;;;;;;;0.00;0.00;;;18.50;99.90;;;;;;5020904;28;20052;-78
2023/08/25 11:19:25;;;;;;;0.00;0.00;;;18.70;99.90;;;;;;5008641;28;20041;-78
2023/08/25 11:22:03;;;;;;;0.10;0.10;;;18.80;99.90;;;;;;5028044;28;20052;-80
2023/08/25 11:24:31;;;;;;;0.88;0.88;;;18.60;99.90;;;;;;5010047;28;20055;-78
2023/08/25 11:27:09;;;;;;;0.90;0.90;;;18.70;99.90;;;;;;5031072;28;20041;-79
2023/08/25 11:29:39;;;;;;;0.10;0.10;;;18.90;99.90;;;;;;5036328;28;20398;-77
2023/08/25 11:32:11;;;;;;;0.10;0.10;;;19.00;99.90;;;;;;5035965;28;20045;-79
2023/08/25 11:34:38;;;;;;;0.10;0.10;;;18.90;99.90;;;;;;5007254;28;20057;-78
2023/08/25 11:37:05;;;;;;;0.55;0.55;;;18.90;99.90;;;;;;5031022;28;20049;-78
2023/08/25 11:39:32;;;;;;;0.20;0.20;;;18.80;99.90;;;;;;5034126;28;20052;-78
2023/08/25 11:42:01;;;;;;;0.10;0.10;;;18.80;99.90;;;;;;5024620;28;20049;-78
2023/08/25 11:44:28;;;;;;;0.50;0.50;;;18.80;99.90;;;;;;5009203;28;20037;-77
2023/08/25 11:46:56;;;;;;;0.10;0.10;;;18.80;99.90;;;;;;5024352;28;20061;-78
2023/08/25 11:49:28;;;;;;;1.27;1.27;;;18.90;99.90;;;;;;5014149;28;20041;-78
2023/08/25 11:51:55;;;;;;;0.10;0.10;;;19.00;99.90;;;;;;5028813;28;20064;-78
2023/08/25 11:54:21;;;;;;;0.32;0.32;;;19.10;99.90;;;;;;5038487;28;20061;-79
2023/08/25 11:56:50;;;;;;;0.40;0.40;;;19.20;99.90;;;;;;5029271;28;20969;-78
2023/08/25 11:59:19;;;;;;;0.30;0.30;;;19.30;99.90;;;;;;5013809;28;20057;-79
2023/08/25 12:01:49;;;;;;;0.30;0.30;;;19.50;99.90;;;;;;5015152;28;20045;-79
2023/08/25 12:04:23;;;;;;;0.30;0.30;;;19.70;99.90;;;;;;5018221;28;20052;-79
2023/08/25 12:06:55;;;;;;;0.40;0.40;;;19.90;99.90;;;;;;5032379;28;20050;-79
2023/08/25 12:09:23;;;;;;;0.40;0.40;;;19.80;99.90;;;;;;5003984;28;20576;-79
2023/08/25 12:11:54;;;;;;;1.45;1.35;;;19.70;99.90;;;;;;5019439;28;20056;-79
2023/08/25 12:14:28;;;;;;;0.40;0.40;;;19.60;99.90;;;;;;5010838;28;20056;-77
2023/08/25 12:16:57;;;;;;;1.97;1.87;;;19.70;99.90;;;;;;5026413;28;20073;-77
2023/08/25 12:19:27;;;;;;;0.80;0.80;;;19.70;99.90;;;;;;5026191;28;20306;-78
2023/08/25 12:21:56;;;;;;;0.43;0.43;;;19.80;99.90;;;;;;5030030;28;20466;-77
2023/08/25 12:24:23;;;;;;;1.30;0.70;;;19.80;99.90;;;;;;5004413;28;20499;-77
2023/08/25 12:26:51;;;;;;;0.30;0.30;;;19.90;99.90;;;;;;5015651;28;20052;-78
2023/08/25 12:29:20;;;;;;;0.30;0.30;;;19.90;99.90;;;;;;5027244;28;20045;-78
2023/08/25 12:31:47;;;;;;;3.22;1.80;;;20.10;99.90;;;;;;5024186;28;20044;-78
2023/08/25 12:34:14;;;;;;;0.50;0.50;;;20.20;99.90;;;;;;5007930;28;20510;-77
2023/08/25 12:36:40;;;;;;;0.22;0.22;;;20.20;99.90;;;;;;5029371;28;20052;-78
2023/08/25 12:39:08;;;;;;;6.22;4.82;;;20.20;99.90;;;;;;5025582;28;20049;-78